Glassboro, New Jersey
Current Conditions -  °F | °C
As of 7:54 PM on Saturday 25 Oct 2014 (Local Time) from KPHL Reporting Station
Few Clouds Few Clouds  
Wind Chill: 64°   Ceiling: Unl
Heat Index: 64°   Visibility: 10mi
Dew Point: 45°   Wind: 14mph
Humidity: 50%   Direction: 220°SW
Pressure: 29.69"   Gusts: NA
Location:  39.71°N, 75.11°W
Report Text: KPHL 252354Z 22012KT 10SM FEW070 18/07 A2969 RMK AO2 SLP055 T01780072 10211 20172 56009
Loading
Personal Weather Stations






























Interactive Weather Map
Tropical Storm Tracking
New forecast layout! Learn more

10-Day Weather Forecast

Advertisements
Track Severe Weather on mobile